Time;durP1;ratioP1;P1;durP2;ratioP2;P2;SDS_P1;SDS_P2;PMS_P1;PMS_P2;Temp;Humidity;BMP_temperature;BMP_pressure;BME280_temperature;BME280_humidity;BME280_pressure;Samples;Min_cycle;Max_cycle;Signal;HPM_P1;HPM_P2
2021/01/27 00:00:46;;;;;;;5.70;2.70;;;3.80;99.90;;;;;;5108641;28;20036;-52
2021/01/27 00:03:12;;;;;;;5.20;2.25;;;3.70;99.90;;;;;;5108404;28;20485;-52
2021/01/27 00:05:41;;;;;;;4.95;2.63;;;3.70;99.90;;;;;;5108320;28;20102;-52
2021/01/27 00:08:08;;;;;;;3.67;2.38;;;3.60;99.90;;;;;;5108969;28;20029;-49
2021/01/27 00:10:34;;;;;;;4.68;2.40;;;3.70;99.90;;;;;;5106871;28;20129;-52
2021/01/27 00:13:03;;;;;;;3.50;2.15;;;3.80;99.90;;;;;;5108208;28;20039;-51
2021/01/27 00:15:32;;;;;;;5.43;2.53;;;3.90;99.90;;;;;;5108766;28;20093;-52
2021/01/27 00:17:58;;;;;;;2.75;1.92;;;3.90;99.90;;;;;;5108072;28;20134;-52
2021/01/27 00:20:25;;;;;;;4.35;2.60;;;4.00;99.90;;;;;;5108155;28;20024;-50
2021/01/27 00:22:51;;;;;;;4.78;2.20;;;4.10;99.90;;;;;;5108231;28;20053;-50
2021/01/27 00:25:20;;;;;;;4.13;2.60;;;4.10;99.90;;;;;;5108242;28;20038;-49
2021/01/27 00:27:45;;;;;;;4.72;2.40;;;4.00;99.90;;;;;;5107807;28;20027;-52
2021/01/27 00:30:27;;;;;;;5.40;2.63;;;3.90;99.90;;;;;;5108081;28;20040;-49
2021/01/27 00:32:53;;;;;;;5.30;2.95;;;3.90;99.90;;;;;;5107853;28;20023;-53
2021/01/27 00:35:25;;;;;;;5.57;2.20;;;3.90;99.90;;;;;;5108645;28;20027;-48
2021/01/27 00:37:52;;;;;;;5.10;3.00;;;3.80;99.90;;;;;;5108294;28;20023;-49
2021/01/27 00:40:18;;;;;;;4.25;2.80;;;3.90;99.90;;;;;;5108403;27;20050;-49
2021/01/27 00:42:43;;;;;;;4.57;2.83;;;3.90;99.90;;;;;;5107437;28;20028;-49
2021/01/27 00:45:10;;;;;;;5.47;3.05;;;3.90;99.90;;;;;;5107924;28;20043;-50
2021/01/27 00:47:36;;;;;;;7.03;3.13;;;3.90;99.90;;;;;;5107740;28;20401;-49
2021/01/27 00:50:02;;;;;;;5.47;3.20;;;3.90;99.90;;;;;;5107137;28;20032;-51
2021/01/27 00:52:28;;;;;;;8.73;4.22;;;4.20;99.90;;;;;;5106921;28;20050;-50
2021/01/27 00:54:54;;;;;;;10.35;4.25;;;4.30;99.90;;;;;;5107401;27;20489;-50
2021/01/27 00:57:19;;;;;;;9.15;4.82;;;4.30;99.90;;;;;;5108419;28;20126;-52
2021/01/27 00:59:46;;;;;;;11.80;5.22;;;4.30;99.90;;;;;;5106953;28;20024;-52
2021/01/27 01:02:11;;;;;;;10.30;5.22;;;4.20;99.90;;;;;;5107008;28;20621;-52
2021/01/27 01:04:37;;;;;;;9.68;5.25;;;4.10;99.90;;;;;;5107114;28;20110;-50
2021/01/27 01:07:02;;;;;;;9.07;4.50;;;4.10;99.90;;;;;;5107488;28;20023;-50
2021/01/27 01:09:28;;;;;;;9.57;4.90;;;4.10;99.90;;;;;;5107364;28;20034;-51
2021/01/27 01:11:55;;;;;;;8.40;5.05;;;4.10;99.90;;;;;;5107178;28;20124;-49
2021/01/27 01:14:21;;;;;;;11.15;4.57;;;4.00;99.90;;;;;;5107675;28;20023;-50
2021/01/27 01:16:47;;;;;;;11.63;5.55;;;4.00;99.90;;;;;;5107398;28;20383;-49
2021/01/27 01:19:12;;;;;;;10.25;4.75;;;4.00;99.90;;;;;;5106919;28;20024;-49
2021/01/27 01:21:39;;;;;;;10.18;5.22;;;3.90;99.90;;;;;;5106980;28;20020;-51
2021/01/27 01:24:06;;;;;;;10.02;5.35;;;3.90;99.90;;;;;;5106750;28;20020;-51
2021/01/27 01:26:31;;;;;;;9.00;5.15;;;4.00;99.90;;;;;;5107085;27;20045;-51
2021/01/27 01:28:57;;;;;;;8.88;4.93;;;4.00;99.90;;;;;;5106713;28;20028;-51
2021/01/27 01:31:22;;;;;;;9.25;5.00;;;4.00;99.90;;;;;;5107315;28;20032;-52
2021/01/27 01:33:48;;;;;;;10.32;4.82;;;4.00;99.90;;;;;;5106998;28;20051;-49
2021/01/27 01:36:13;;;;;;;7.15;4.40;;;3.90;99.90;;;;;;5106847;28;20106;-51
2021/01/27 01:38:39;;;;;;;8.50;4.18;;;3.90;99.90;;;;;;5106515;28;20503;-50
2021/01/27 01:41:06;;;;;;;7.65;4.15;;;3.50;99.90;;;;;;5106695;28;20033;-49
2021/01/27 01:43:38;;;;;;;6.57;3.67;;;3.60;99.90;;;;;;5106869;28;20023;-49
2021/01/27 01:46:11;;;;;;;5.28;3.03;;;3.80;99.90;;;;;;5106757;27;20527;-50
2021/01/27 01:48:51;;;;;;;7.07;3.85;;;4.00;99.90;;;;;;5106195;28;20077;-49
2021/01/27 01:51:55;;;;;;;10.73;4.85;;;4.00;99.90;;;;;;5106530;28;20073;-48
2021/01/27 01:54:41;;;;;;;15.07;6.50;;;3.90;99.90;;;;;;5106841;28;20072;-51
2021/01/27 01:57:15;;;;;;;11.00;6.13;;;3.80;99.90;;;;;;5106306;28;20432;-51
2021/01/27 01:59:49;;;;;;;12.40;6.18;;;3.60;99.90;;;;;;5106255;28;20095;-50
2021/01/27 02:02:15;;;;;;;8.80;5.28;;;3.60;99.90;;;;;;5106161;28;20038;-49
2021/01/27 02:04:51;;;;;;;10.55;5.32;;;3.50;99.90;;;;;;5106496;28;20032;-50
2021/01/27 02:07:18;;;;;;;8.25;5.00;;;3.50;99.90;;;;;;5106228;28;20031;-50
2021/01/27 02:09:43;;;;;;;7.60;4.55;;;3.70;99.90;;;;;;5105902;28;20024;-51
2021/01/27 02:12:22;;;;;;;7.35;4.25;;;3.70;99.90;;;;;;5105128;28;20042;-52
2021/01/27 02:15:18;;;;;;;6.80;4.05;;;3.70;99.90;;;;;;5106405;28;20039;-48
2021/01/27 02:18:34;;;;;;;5.95;4.28;;;3.70;99.90;;;;;;5105346;28;20138;-50
2021/01/27 02:21:27;;;;;;;7.50;4.32;;;3.70;99.90;;;;;;5062406;28;20025;-52
2021/01/27 02:24:11;;;;;;;7.30;4.13;;;3.80;99.90;;;;;;5105423;28;20057;-53
2021/01/27 02:27:01;;;;;;;8.00;4.30;;;3.70;99.90;;;;;;5105708;28;20153;-51
2021/01/27 02:30:03;;;;;;;6.57;3.63;;;3.70;99.90;;;;;;5106187;28;20036;-50
2021/01/27 02:32:59;;;;;;;9.43;3.63;;;3.70;99.90;;;;;;5092043;28;20546;-53
2021/01/27 02:35:34;;;;;;;6.78;4.00;;;3.70;99.90;;;;;;5105631;28;20072;-49
2021/01/27 02:38:09;;;;;;;9.00;4.13;;;3.50;99.90;;;;;;5105297;28;20211;-49
2021/01/27 02:40:45;;;;;;;5.93;3.88;;;3.40;99.90;;;;;;5105406;28;20058;-50
2021/01/27 02:43:17;;;;;;;6.18;3.58;;;3.20;99.90;;;;;;5105657;28;20023;-51
2021/01/27 02:45:52;;;;;;;6.47;4.20;;;3.50;99.90;;;;;;5105196;28;20035;-50
2021/01/27 02:48:25;;;;;;;5.80;3.20;;;3.60;99.90;;;;;;5106052;28;20023;-50
2021/01/27 02:51:16;;;;;;;6.90;3.53;;;3.50;99.90;;;;;;5105827;28;20027;-50
2021/01/27 02:53:50;;;;;;;4.75;2.78;;;3.60;99.90;;;;;;5104500;28;20071;-49
2021/01/27 02:56:22;;;;;;;4.65;3.00;;;3.70;99.90;;;;;;5105509;28;20106;-50
2021/01/27 02:59:01;;;;;;;3.88;2.55;;;3.90;99.90;;;;;;5105390;28;20103;-51
2021/01/27 03:01:35;;;;;;;4.55;2.53;;;3.80;99.90;;;;;;5105127;28;20489;-52
2021/01/27 03:04:06;;;;;;;5.47;2.97;;;3.90;99.90;;;;;;5104945;28;20016;-53
2021/01/27 03:06:33;;;;;;;5.47;3.03;;;3.90;99.90;;;;;;5105127;28;20027;-51
2021/01/27 03:09:14;;;;;;;3.50;2.30;;;3.70;99.90;;;;;;5104953;28;20658;-52
2021/01/27 03:11:40;;;;;;;5.00;2.97;;;3.80;99.90;;;;;;5104796;28;20110;-51
2021/01/27 03:14:09;;;;;;;3.95;2.65;;;3.80;99.90;;;;;;5105422;28;20401;-51
2021/01/27 03:16:47;;;;;;;4.45;2.97;;;3.90;99.90;;;;;;5105145;28;20039;-50
2021/01/27 03:19:18;;;;;;;4.18;2.35;;;4.00;99.90;;;;;;5105107;28;20073;-51
2021/01/27 03:21:50;;;;;;;5.28;2.90;;;4.10;99.90;;;;;;5104848;28;20055;-52
2021/01/27 03:24:20;;;;;;;6.45;3.90;;;4.00;99.90;;;;;;5104723;28;20030;-51
2021/01/27 03:27:00;;;;;;;6.47;3.47;;;3.80;99.90;;;;;;5104926;28;20058;-51
2021/01/27 03:29:34;;;;;;;3.97;2.40;;;3.90;99.90;;;;;;5104937;28;20110;-52
2021/01/27 03:32:06;;;;;;;4.20;2.50;;;3.90;99.90;;;;;;5104382;28;20065;-50
2021/01/27 03:34:39;;;;;;;4.53;2.90;;;4.00;99.90;;;;;;5104565;28;20455;-52
2021/01/27 03:37:17;;;;;;;4.20;2.70;;;4.00;99.90;;;;;;5104678;28;20034;-51
2021/01/27 03:39:46;;;;;;;3.83;2.38;;;4.00;99.90;;;;;;5104725;28;20039;-49
2021/01/27 03:42:23;;;;;;;4.10;2.40;;;4.00;99.90;;;;;;5104798;28;20028;-49
2021/01/27 03:44:57;;;;;;;3.38;2.50;;;4.00;99.90;;;;;;5105121;28;20186;-51
2021/01/27 03:47:39;;;;;;;5.05;2.85;;;4.00;99.90;;;;;;5104829;28;20167;-52
2021/01/27 03:50:07;;;;;;;3.25;2.20;;;4.00;99.90;;;;;;5104548;28;20407;-52
2021/01/27 03:53:00;;;;;;;3.78;2.60;;;4.00;99.90;;;;;;5104140;28;20358;-53
2021/01/27 03:55:48;;;;;;;5.68;3.33;;;4.00;99.90;;;;;;5104801;28;20032;-53
2021/01/27 03:58:23;;;;;;;9.95;5.47;;;4.00;99.90;;;;;;5104471;28;20405;-52
2021/01/27 04:00:50;;;;;;;;;;;4.10;99.90;;;;;;5105637;28;20180;-49
2021/01/27 04:03:19;;;;;;;14.57;7.97;;;4.10;99.90;;;;;;5104715;28;20377;-51
2021/01/27 04:05:46;;;;;;;11.80;6.30;;;4.10;99.90;;;;;;5104325;28;20492;-51
2021/01/27 04:08:13;;;;;;;11.00;6.13;;;4.00;99.90;;;;;;5104696;28;20036;-50
2021/01/27 04:10:39;;;;;;;12.40;5.32;;;3.90;99.90;;;;;;5104198;28;20031;-52
2021/01/27 04:13:06;;;;;;;8.05;4.65;;;3.90;99.90;;;;;;5104323;28;20054;-50
2021/01/27 04:15:32;;;;;;;8.13;5.00;;;3.80;99.90;;;;;;5104700;28;20024;-50
2021/01/27 04:17:58;;;;;;;6.00;3.63;;;3.90;99.90;;;;;;5103662;28;20218;-50
2021/01/27 04:20:24;;;;;;;6.45;3.95;;;3.80;99.90;;;;;;5104640;28;20466;-51
2021/01/27 04:22:49;;;;;;;7.53;4.13;;;3.70;99.90;;;;;;5104758;28;20032;-51
2021/01/27 04:25:16;;;;;;;7.03;3.85;;;3.60;99.90;;;;;;5104360;28;20034;-51
2021/01/27 04:27:41;;;;;;;7.35;4.03;;;3.60;99.90;;;;;;5104195;28;20055;-52
2021/01/27 04:30:10;;;;;;;5.78;3.65;;;3.40;99.90;;;;;;5104324;28;20073;-51
2021/01/27 04:32:36;;;;;;;6.70;3.80;;;3.50;99.90;;;;;;5103889;28;20053;-49
2021/01/27 04:35:02;;;;;;;5.38;3.20;;;3.60;99.90;;;;;;5103954;28;20561;-50
2021/01/27 04:37:28;;;;;;;5.82;3.50;;;3.50;99.90;;;;;;5107867;28;20106;-52
2021/01/27 04:39:53;;;;;;;9.60;3.75;;;3.40;99.90;;;;;;5107714;28;20099;-50
2021/01/27 04:42:28;;;;;;;7.45;3.72;;;3.60;99.90;;;;;;5108514;28;20032;-52
2021/01/27 04:44:58;;;;;;;6.28;3.85;;;3.60;99.90;;;;;;5107504;28;20043;-53
2021/01/27 04:47:29;;;;;;;7.00;3.83;;;3.60;99.90;;;;;;5107498;28;20042;-52
2021/01/27 04:50:04;;;;;;;10.95;5.90;;;3.60;99.90;;;;;;5107584;28;20427;-52
2021/01/27 04:53:24;;;;;;;16.55;7.75;;;3.50;99.90;;;;;;5107389;28;20035;-50
2021/01/27 04:55:55;;;;;;;13.63;7.25;;;3.40;99.90;;;;;;5099926;28;20489;-53
2021/01/27 04:58:50;;;;;;;14.35;7.28;;;3.50;99.90;;;;;;5108047;28;20032;-50
2021/01/27 05:01:29;;;;;;;16.48;8.20;;;3.50;99.90;;;;;;5106929;28;20027;-52
2021/01/27 05:04:37;;;;;;;16.40;8.60;;;3.60;99.90;;;;;;5102555;28;20024;-51
2021/01/27 05:07:14;;;;;;;12.60;7.22;;;3.60;99.90;;;;;;5077255;28;20028;-52
2021/01/27 05:09:53;;;;;;;11.68;6.32;;;3.50;99.90;;;;;;5088717;28;20454;-52
2021/01/27 05:12:19;;;;;;;9.88;5.13;;;3.50;99.90;;;;;;5088941;28;20043;-49
2021/01/27 05:14:48;;;;;;;9.20;5.25;;;3.50;99.90;;;;;;5088166;28;20020;-52
2021/01/27 05:17:18;;;;;;;9.77;5.25;;;3.60;99.90;;;;;;5094411;28;20024;-53
2021/01/27 05:19:44;;;;;;;9.63;5.03;;;3.60;99.90;;;;;;5100901;28;20031;-52
2021/01/27 05:22:12;;;;;;;12.77;5.55;;;3.70;99.90;;;;;;5108519;28;20551;-53
2021/01/27 05:24:39;;;;;;;11.73;5.70;;;3.70;99.90;;;;;;5088143;28;20040;-52
2021/01/27 05:27:10;;;;;;;8.27;4.68;;;3.70;99.90;;;;;;5097268;28;20506;-53
2021/01/27 05:29:40;;;;;;;8.30;4.63;;;3.70;99.90;;;;;;5106826;28;20031;-51
2021/01/27 05:32:16;;;;;;;9.70;5.20;;;3.70;99.90;;;;;;5108290;28;20076;-51
2021/01/27 05:34:51;;;;;;;7.97;4.70;;;3.70;99.90;;;;;;5100307;28;20059;-50
2021/01/27 05:37:32;;;;;;;7.05;4.15;;;3.60;99.90;;;;;;5088006;28;20054;-52
2021/01/27 05:40:13;;;;;;;6.15;3.72;;;3.60;99.90;;;;;;5087757;28;20030;-52
2021/01/27 05:42:42;;;;;;;5.82;3.63;;;3.50;99.90;;;;;;5086954;28;20024;-52
2021/01/27 05:45:45;;;;;;;5.53;3.50;;;3.50;99.90;;;;;;5086070;28;20073;-50
2021/01/27 05:48:14;;;;;;;7.57;3.30;;;3.80;99.90;;;;;;5088294;28;20036;-51
2021/01/27 05:50:41;;;;;;;6.68;3.42;;;3.90;99.90;;;;;;5104540;28;20568;-51
2021/01/27 05:53:18;;;;;;;5.50;3.45;;;4.00;99.90;;;;;;5105775;28;20055;-52
2021/01/27 05:55:58;;;;;;;5.88;3.20;;;4.00;99.90;;;;;;5106133;28;20028;-50
2021/01/27 05:58:24;;;;;;;5.00;3.17;;;3.90;99.90;;;;;;5106253;28;20020;-50
2021/01/27 06:00:50;;;;;;;6.47;3.25;;;4.00;99.90;;;;;;5103780;28;20027;-54
2021/01/27 06:03:23;;;;;;;5.50;3.40;;;3.90;99.90;;;;;;5106735;28;20448;-51
2021/01/27 06:05:51;;;;;;;5.70;3.38;;;3.90;99.90;;;;;;5094313;28;20024;-49
2021/01/27 06:08:21;;;;;;;6.82;3.75;;;3.90;99.90;;;;;;5097438;28;20549;-52
2021/01/27 06:10:48;;;;;;;5.75;3.00;;;3.90;99.90;;;;;;5106906;28;20040;-51
2021/01/27 06:13:26;;;;;;;5.00;3.40;;;4.00;99.90;;;;;;5106643;28;20031;-53
2021/01/27 06:15:52;;;;;;;5.25;3.60;;;3.90;99.90;;;;;;5105026;28;20497;-50
2021/01/27 06:18:27;;;;;;;6.03;3.55;;;3.80;99.90;;;;;;5104591;28;20462;-49
2021/01/27 06:21:04;;;;;;;4.95;3.20;;;3.60;99.90;;;;;;5105518;28;20467;-49
2021/01/27 06:23:36;;;;;;;5.10;3.08;;;3.50;99.90;;;;;;5105945;27;20024;-50
2021/01/27 06:26:24;;;;;;;6.35;3.60;;;3.40;99.90;;;;;;5105744;28;20059;-51
2021/01/27 06:29:14;;;;;;;4.85;3.10;;;3.30;99.90;;;;;;5105213;28;20055;-48
2021/01/27 06:31:49;;;;;;;4.82;3.45;;;3.40;99.90;;;;;;5106100;28;20038;-49
2021/01/27 06:34:27;;;;;;;8.05;4.03;;;3.50;99.90;;;;;;5105744;28;20031;-50
2021/01/27 06:37:16;;;;;;;6.50;3.75;;;3.50;99.90;;;;;;5104337;28;20020;-49
2021/01/27 06:39:46;;;;;;;5.80;3.50;;;3.50;99.90;;;;;;5106180;28;20178;-49
2021/01/27 06:42:25;;;;;;;7.30;3.97;;;3.50;99.90;;;;;;5106353;28;20327;-49
2021/01/27 06:45:20;;;;;;;7.03;3.63;;;3.60;99.90;;;;;;5105035;28;20424;-51
2021/01/27 06:48:12;;;;;;;6.57;3.55;;;3.80;99.90;;;;;;5101460;28;20184;-49
2021/01/27 06:51:13;;;;;;;6.30;3.40;;;3.90;99.90;;;;;;5105942;28;20059;-49
2021/01/27 06:54:00;;;;;;;7.10;3.72;;;3.90;99.90;;;;;;5087468;28;20062;-49
2021/01/27 06:56:52;;;;;;;7.15;4.18;;;3.80;99.90;;;;;;5105356;28;20293;-49
2021/01/27 06:59:43;;;;;;;7.22;3.90;;;3.90;99.90;;;;;;5104350;28;20047;-49
2021/01/27 07:02:21;;;;;;;7.93;3.97;;;4.00;99.90;;;;;;5106019;28;20054;-50
2021/01/27 07:04:55;;;;;;;5.97;3.08;;;4.00;99.90;;;;;;5104560;28;20098;-50
2021/01/27 07:07:45;;;;;;;4.75;2.90;;;3.90;99.90;;;;;;5105094;28;20031;-48
2021/01/27 07:10:20;;;;;;;5.25;2.90;;;3.80;99.90;;;;;;5105839;28;20028;-50
2021/01/27 07:12:52;;;;;;;5.80;3.00;;;3.90;99.90;;;;;;5104771;28;20038;-49
2021/01/27 07:15:45;;;;;;;4.35;2.83;;;3.90;99.90;;;;;;5104733;28;20405;-51
2021/01/27 07:18:16;;;;;;;5.97;3.10;;;3.90;99.90;;;;;;5104784;28;20193;-49
2021/01/27 07:21:01;;;;;;;6.63;3.35;;;3.90;99.90;;;;;;5105491;28;20042;-51
2021/01/27 07:23:26;;;;;;;;;;;3.90;99.90;;;;;;5105412;28;20570;-49
2021/01/27 07:25:55;;;;;;;5.93;3.45;;;3.80;99.90;;;;;;5104636;28;20220;-52
2021/01/27 07:28:29;;;;;;;8.32;4.25;;;3.80;99.90;;;;;;5104879;28;20576;-51
2021/01/27 07:31:22;;;;;;;6.97;3.65;;;4.00;99.90;;;;;;5098756;28;20077;-51
2021/01/27 07:33:51;;;;;;;7.43;4.10;;;4.00;99.90;;;;;;5100589;28;20167;-49
2021/01/27 07:36:38;;;;;;;7.43;4.28;;;4.10;99.90;;;;;;5106519;28;20500;-50
2021/01/27 07:39:26;;;;;;;6.38;3.88;;;3.90;99.90;;;;;;5106462;28;20027;-51
2021/01/27 07:42:17;;;;;;;5.68;3.33;;;3.90;99.90;;;;;;5101764;28;20062;-51
2021/01/27 07:44:47;;;;;;;7.13;3.88;;;3.70;99.90;;;;;;5104978;28;20027;-52
2021/01/27 07:47:20;;;;;;;6.57;4.22;;;3.90;99.90;;;;;;5106839;28;20481;-51
2021/01/27 07:49:54;;;;;;;8.23;4.78;;;3.80;99.90;;;;;;5106290;28;20023;-53
2021/01/27 07:52:36;;;;;;;8.23;4.97;;;4.00;99.90;;;;;;5104148;28;20047;-50
2021/01/27 07:55:14;;;;;;;8.32;5.15;;;4.10;99.90;;;;;;5105929;28;20020;-53
2021/01/27 07:58:05;;;;;;;8.68;5.03;;;4.10;99.90;;;;;;5104579;28;20614;-48
2021/01/27 08:00:41;;;;;;;8.68;5.20;;;4.20;99.90;;;;;;5106368;28;20144;-48
2021/01/27 08:03:15;;;;;;;10.45;5.45;;;4.20;99.90;;;;;;5084776;28;20119;-50
2021/01/27 08:05:43;;;;;;;12.05;6.50;;;4.10;99.90;;;;;;5102803;28;20096;-51
2021/01/27 08:08:16;;;;;;;11.77;6.80;;;4.30;99.90;;;;;;5106279;28;20532;-49
2021/01/27 08:10:42;;;;;;;11.85;6.97;;;4.30;99.90;;;;;;5105391;28;20043;-48
2021/01/27 08:13:39;;;;;;;11.50;6.57;;;4.40;99.90;;;;;;5109786;28;20035;-48
2021/01/27 08:16:13;;;;;;;12.20;6.82;;;4.40;99.90;;;;;;5101037;28;20031;-51
2021/01/27 08:19:10;;;;;;;8.30;4.97;;;4.40;99.90;;;;;;5106155;28;20031;-50
2021/01/27 08:21:45;;;;;;;8.48;5.05;;;4.40;99.90;;;;;;5098790;28;20164;-50
2021/01/27 08:24:38;;;;;;;7.82;4.60;;;4.40;99.90;;;;;;5100434;28;20043;-50
2021/01/27 08:27:10;;;;;;;7.75;4.47;;;4.40;99.90;;;;;;5089348;28;20056;-50
2021/01/27 08:29:38;;;;;;;6.70;4.30;;;4.40;99.90;;;;;;5103508;28;20531;-51
2021/01/27 08:32:26;;;;;;;8.02;4.30;;;4.40;99.90;;;;;;5107750;28;20026;-49
2021/01/27 08:34:58;;;;;;;7.75;4.32;;;4.40;99.90;;;;;;5099561;28;20047;-51
2021/01/27 08:37:27;;;;;;;7.93;4.47;;;4.30;99.90;;;;;;5091885;28;20473;-48
2021/01/27 08:40:28;;;;;;;8.48;4.30;;;4.40;99.90;;;;;;5100725;28;20072;-48
2021/01/27 08:42:56;;;;;;;7.03;3.90;;;4.50;99.90;;;;;;5080400;28;20039;-49
2021/01/27 08:45:22;;;;;;;6.18;3.90;;;4.40;99.90;;;;;;5087774;28;20039;-50
2021/01/27 08:47:52;;;;;;;6.97;4.53;;;4.40;99.90;;;;;;5087279;28;20482;-51
2021/01/27 08:50:27;;;;;;;7.72;4.47;;;4.50;99.90;;;;;;5087203;28;20036;-49
2021/01/27 08:53:04;;;;;;;8.30;4.82;;;4.50;99.90;;;;;;5094685;28;20039;-50
2021/01/27 08:55:55;;;;;;;8.75;5.40;;;4.60;99.90;;;;;;5094149;28;20054;-50
2021/01/27 08:58:33;;;;;;;8.45;5.18;;;4.40;99.90;;;;;;5087864;28;20082;-49
2021/01/27 09:01:21;;;;;;;8.98;5.07;;;4.50;99.90;;;;;;5086823;28;20086;-48
2021/01/27 09:03:50;;;;;;;9.82;5.60;;;4.60;99.90;;;;;;5071956;28;20116;-49
2021/01/27 09:06:41;;;;;;;9.05;4.38;;;4.50;99.90;;;;;;5105888;28;20043;-48
2021/01/27 09:09:07;;;;;;;8.48;4.55;;;4.50;99.90;;;;;;5105469;28;20028;-48
2021/01/27 09:11:33;;;;;;;6.50;4.00;;;4.60;99.90;;;;;;5094877;28;20542;-48
2021/01/27 09:14:08;;;;;;;7.38;3.92;;;4.70;99.90;;;;;;5098396;28;20111;-48
2021/01/27 09:16:35;;;;;;;4.88;3.65;;;4.80;99.90;;;;;;5086122;28;20597;-48
2021/01/27 09:19:18;;;;;;;7.28;3.90;;;4.90;99.90;;;;;;5090176;28;20023;-48
2021/01/27 09:22:22;;;;;;;6.65;3.70;;;4.80;99.90;;;;;;5086795;28;20131;-51
2021/01/27 09:24:49;;;;;;;6.10;3.67;;;4.90;99.90;;;;;;5084638;28;20494;-48
2021/01/27 09:27:33;;;;;;;6.78;3.97;;;4.90;99.90;;;;;;5104427;28;20031;-48
2021/01/27 09:30:10;;;;;;;6.20;3.92;;;4.90;99.90;;;;;;5105472;28;20443;-47
2021/01/27 09:32:36;;;;;;;5.07;3.00;;;5.10;99.90;;;;;;5096844;28;20032;-48
2021/01/27 09:35:20;;;;;;;5.50;3.15;;;5.10;99.90;;;;;;5094419;28;20028;-48
2021/01/27 09:38:14;;;;;;;6.40;3.75;;;5.00;99.90;;;;;;5094090;28;20082;-48
2021/01/27 09:40:44;;;;;;;5.65;3.35;;;4.80;99.90;;;;;;5082341;28;20036;-49
2021/01/27 09:43:12;;;;;;;6.40;4.13;;;4.80;99.90;;;;;;5085813;28;20046;-49
2021/01/27 09:45:41;;;;;;;5.43;3.30;;;5.00;99.90;;;;;;5086948;28;20040;-48
2021/01/27 09:48:10;;;;;;;5.85;3.58;;;5.10;99.90;;;;;;5086158;28;20032;-47
2021/01/27 09:50:42;;;;;;;7.75;4.22;;;5.10;99.90;;;;;;5088798;28;20774;-47
2021/01/27 09:53:24;;;;;;;6.60;4.05;;;4.90;99.90;;;;;;5105759;28;20403;-48
2021/01/27 09:55:51;;;;;;;6.10;3.88;;;5.10;99.90;;;;;;5106122;28;20030;-49
2021/01/27 09:58:17;;;;;;;5.30;3.40;;;5.00;99.90;;;;;;5100001;28;20024;-48
2021/01/27 10:00:43;;;;;;;6.57;3.42;;;5.10;99.90;;;;;;5093795;28;20061;-47
2021/01/27 10:03:32;;;;;;;5.97;3.72;;;5.20;99.90;;;;;;5098495;28;20029;-47
2021/01/27 10:06:00;;;;;;;5.20;3.45;;;5.20;99.90;;;;;;5090092;28;20606;-50
2021/01/27 10:08:36;;;;;;;4.75;3.25;;;5.20;99.90;;;;;;5088154;28;20024;-51
2021/01/27 10:11:32;;;;;;;6.72;3.85;;;5.30;99.90;;;;;;5086559;28;20044;-48
2021/01/27 10:14:23;;;;;;;8.88;4.00;;;5.30;99.90;;;;;;5083774;28;20036;-49
2021/01/27 10:16:50;;;;;;;6.88;3.88;;;5.50;99.90;;;;;;5082160;28;20043;-49
2021/01/27 10:19:22;;;;;;;7.25;3.70;;;5.50;99.90;;;;;;5086206;28;20091;-50
2021/01/27 10:21:50;;;;;;;4.97;3.20;;;5.50;99.90;;;;;;5085284;28;20016;-54
2021/01/27 10:24:43;;;;;;;6.28;3.60;;;5.60;99.90;;;;;;5085488;28;20542;-53
2021/01/27 10:27:35;;;;;;;6.00;3.47;;;5.60;99.90;;;;;;5092854;28;20032;-50
2021/01/27 10:30:05;;;;;;;6.10;3.30;;;5.50;99.90;;;;;;5105761;28;20035;-48
2021/01/27 10:32:35;;;;;;;5.20;3.30;;;5.50;99.90;;;;;;5097550;28;20039;-52
2021/01/27 10:35:21;;;;;;;4.97;3.10;;;5.40;99.90;;;;;;5084818;28;20604;-53
2021/01/27 10:37:48;;;;;;;6.65;3.55;;;5.60;99.90;;;;;;5086129;28;20051;-54
2021/01/27 10:40:24;;;;;;;6.22;3.65;;;5.70;99.90;;;;;;5084814;28;20020;-53
2021/01/27 10:43:02;;;;;;;4.70;2.88;;;5.70;99.90;;;;;;5083872;28;20043;-54
2021/01/27 10:45:29;;;;;;;4.65;2.78;;;5.70;99.90;;;;;;5105519;28;20046;-52
2021/01/27 10:48:13;;;;;;;5.75;3.00;;;5.60;99.90;;;;;;5105153;28;20027;-51
2021/01/27 10:50:47;;;;;;;5.53;2.85;;;5.70;99.90;;;;;;5104882;28;20027;-53
2021/01/27 10:53:16;;;;;;;4.85;3.00;;;5.80;99.90;;;;;;5102633;28;20020;-54
2021/01/27 10:55:46;;;;;;;6.00;3.33;;;5.80;99.90;;;;;;5104747;28;20024;-54
2021/01/27 10:58:16;;;;;;;6.07;3.20;;;5.70;99.90;;;;;;5104417;28;20047;-54
2021/01/27 11:00:43;;;;;;;4.80;3.10;;;5.60;99.90;;;;;;5099878;28;20024;-54
2021/01/27 11:03:10;;;;;;;5.47;3.20;;;5.60;99.90;;;;;;5084616;28;20072;-53
2021/01/27 11:05:37;;;;;;;7.35;4.53;;;5.70;99.90;;;;;;5104915;28;20028;-54
2021/01/27 11:08:05;;;;;;;6.35;3.97;;;5.50;99.90;;;;;;5104833;28;20020;-54
2021/01/27 11:10:31;;;;;;;6.03;3.35;;;5.70;99.90;;;;;;5103245;28;20028;-54
2021/01/27 11:12:57;;;;;;;4.38;2.88;;;5.90;99.90;;;;;;5101205;28;20060;-54
2021/01/27 11:15:24;;;;;;;6.30;3.50;;;6.00;99.90;;;;;;5103752;28;20030;-54
2021/01/27 11:17:50;;;;;;;4.65;2.95;;;6.10;99.90;;;;;;5104200;28;20028;-54
2021/01/27 11:20:22;;;;;;;5.13;2.80;;;6.00;99.90;;;;;;5104515;28;20091;-54
2021/01/27 11:22:50;;;;;;;5.72;3.40;;;6.00;99.90;;;;;;5083984;28;20035;-53
2021/01/27 11:25:27;;;;;;;5.40;3.35;;;5.80;99.90;;;;;;5084133;28;20028;-53
2021/01/27 11:27:53;;;;;;;6.82;2.83;;;5.80;99.90;;;;;;5084309;28;20035;-55
2021/01/27 11:30:23;;;;;;;4.93;3.13;;;6.00;99.90;;;;;;5084345;28;20031;-53
2021/01/27 11:32:49;;;;;;;5.45;3.30;;;6.10;99.90;;;;;;5084624;28;20028;-54
2021/01/27 11:35:17;;;;;;;7.50;4.15;;;6.00;99.90;;;;;;5083774;28;20028;-54
2021/01/27 11:37:43;;;;;;;7.60;3.35;;;6.10;99.90;;;;;;5083925;28;20020;-54
2021/01/27 11:40:10;;;;;;;5.90;3.45;;;6.20;99.90;;;;;;5083901;28;20089;-54
2021/01/27 11:42:36;;;;;;;5.68;3.38;;;6.40;99.90;;;;;;5083492;28;20038;-54
2021/01/27 11:45:04;;;;;;;5.85;3.10;;;6.40;99.90;;;;;;5085394;28;20103;-54
2021/01/27 11:47:30;;;;;;;6.97;3.25;;;6.40;99.90;;;;;;5087825;28;20498;-55
2021/01/27 11:49:55;;;;;;;5.38;3.15;;;6.50;99.90;;;;;;5088495;28;20044;-54
2021/01/27 11:52:21;;;;;;;5.47;3.22;;;6.50;99.90;;;;;;5097438;28;20040;-54
2021/01/27 11:54:48;;;;;;;5.95;3.08;;;6.50;99.90;;;;;;5107952;28;20110;-54
2021/01/27 11:57:14;;;;;;;5.45;2.90;;;6.50;99.90;;;;;;5108110;28;20450;-54
2021/01/27 11:59:40;;;;;;;4.50;2.90;;;6.60;99.90;;;;;;5102778;28;20020;-55
2021/01/27 12:02:06;;;;;;;5.97;3.22;;;6.60;99.90;;;;;;5087682;28;20036;-54
2021/01/27 12:04:35;;;;;;;4.07;2.65;;;6.60;99.90;;;;;;5087910;28;20024;-55
2021/01/27 12:07:01;;;;;;;5.10;3.15;;;6.60;99.90;;;;;;5087552;28;20173;-55
2021/01/27 12:09:30;;;;;;;3.55;2.47;;;6.50;99.90;;;;;;5087188;28;20063;-55
2021/01/27 12:11:58;;;;;;;3.67;2.40;;;6.50;99.90;;;;;;5087546;28;20042;-54
2021/01/27 12:14:24;;;;;;;3.95;2.17;;;6.50;99.90;;;;;;5094366;28;20032;-54
2021/01/27 12:16:50;;;;;;;3.83;2.22;;;6.50;99.90;;;;;;5107624;28;20093;-53
2021/01/27 12:19:16;;;;;;;3.83;2.60;;;6.40;99.90;;;;;;5098820;28;20481;-55
2021/01/27 12:21:42;;;;;;;3.55;2.47;;;6.50;99.90;;;;;;5087895;28;20043;-54
2021/01/27 12:24:08;;;;;;;3.67;2.28;;;6.60;99.90;;;;;;5107605;28;20545;-54
2021/01/27 12:26:34;;;;;;;4.82;2.90;;;6.60;99.90;;;;;;5106309;28;20459;-54
2021/01/27 12:28:59;;;;;;;5.50;2.72;;;6.60;99.90;;;;;;5103499;28;20024;-53
2021/01/27 12:31:25;;;;;;;4.25;2.50;;;6.60;99.90;;;;;;5088267;28;20089;-52
2021/01/27 12:33:52;;;;;;;3.75;2.63;;;6.60;99.90;;;;;;5088232;28;20167;-53
2021/01/27 12:36:18;;;;;;;4.70;2.95;;;6.60;99.90;;;;;;5103399;28;20108;-54
2021/01/27 12:38:44;;;;;;;4.47;2.70;;;6.60;99.90;;;;;;5103528;28;20107;-54
2021/01/27 12:41:10;;;;;;;4.93;2.45;;;6.60;99.90;;;;;;5106005;28;20024;-54
2021/01/27 12:43:36;;;;;;;4.68;2.78;;;6.50;99.90;;;;;;5105283;28;20024;-54
2021/01/27 12:46:02;;;;;;;4.10;2.70;;;6.40;99.90;;;;;;5106783;28;20043;-54
2021/01/27 12:48:29;;;;;;;4.03;2.47;;;6.40;99.90;;;;;;5099241;28;20453;-52
2021/01/27 12:50:55;;;;;;;5.53;2.83;;;6.50;99.90;;;;;;5090395;28;20036;-54
2021/01/27 12:53:21;;;;;;;6.30;3.35;;;6.60;99.90;;;;;;5089771;28;20537;-54
2021/01/27 12:55:48;;;;;;;5.18;3.17;;;6.60;99.90;;;;;;5087685;28;20035;-54
2021/01/27 12:58:13;;;;;;;5.85;3.28;;;6.60;99.90;;;;;;5097121;28;20428;-53
2021/01/27 13:00:39;;;;;;;7.18;3.17;;;6.60;99.90;;;;;;5086224;28;20047;-53
2021/01/27 13:03:06;;;;;;;6.22;3.25;;;6.70;99.90;;;;;;5086370;28;20039;-53
2021/01/27 13:05:32;;;;;;;6.00;3.30;;;6.70;99.90;;;;;;5090248;28;20092;-53
2021/01/27 13:07:57;;;;;;;5.78;3.00;;;6.60;99.90;;;;;;5095204;28;20505;-54
2021/01/27 13:10:23;;;;;;;5.63;2.95;;;6.60;99.90;;;;;;5107086;28;20059;-50
2021/01/27 13:12:50;;;;;;;6.55;3.38;;;6.70;99.90;;;;;;5090763;28;20031;-54
2021/01/27 13:15:18;;;;;;;4.90;2.90;;;6.70;99.90;;;;;;5086321;28;20016;-54
2021/01/27 13:17:46;;;;;;;6.25;3.03;;;6.70;99.90;;;;;;5086053;28;20132;-53
2021/01/27 13:20:14;;;;;;;3.85;2.42;;;6.70;99.90;;;;;;5086092;28;20115;-54
2021/01/27 13:22:40;;;;;;;5.93;3.40;;;6.60;99.90;;;;;;5088998;28;20099;-54
2021/01/27 13:25:08;;;;;;;5.65;3.13;;;6.60;99.90;;;;;;5106402;28;20110;-54
2021/01/27 13:27:33;;;;;;;5.82;3.45;;;6.70;99.90;;;;;;5101449;28;20027;-53